createdAt,value
2022-09-18T00:01:18.768Z,6.00
2022-09-18T00:04:23.926Z,5.80
2022-09-18T00:07:28.995Z,6.20
2022-09-18T00:10:34.230Z,6.60
2022-09-18T00:13:42.580Z,6.40
2022-09-18T00:16:47.857Z,5.65
2022-09-18T00:19:52.852Z,5.88
2022-09-18T00:22:58.103Z,6.07
2022-09-18T00:26:03.312Z,5.75
2022-09-18T00:29:10.999Z,6.13
2022-09-18T00:32:16.194Z,6.17
2022-09-18T00:35:21.211Z,6.68
2022-09-18T00:38:26.291Z,6.03
2022-09-18T00:41:32.526Z,5.53
2022-09-18T00:44:47.843Z,6.35
2022-09-18T00:47:54.290Z,5.95
2022-09-18T00:51:01.439Z,5.97
2022-09-18T00:54:09.838Z,5.93
2022-09-18T00:57:15.832Z,5.97
2022-09-18T01:00:23.882Z,6.28
2022-09-18T01:03:28.829Z,5.88
2022-09-18T01:06:40.001Z,6.70
2022-09-18T01:09:48.546Z,6.07
2022-09-18T01:12:56.355Z,7.28
2022-09-18T01:16:08.153Z,7.28
2022-09-18T01:19:18.941Z,6.93
2022-09-18T01:22:28.334Z,6.30
2022-09-18T01:25:39.522Z,7.30
2022-09-18T01:28:49.481Z,6.65
2022-09-18T01:31:56.618Z,6.43
2022-09-18T01:35:10.163Z,7.22
2022-09-18T01:38:32.208Z,7.40
2022-09-18T01:41:38.630Z,6.47
2022-09-18T01:44:48.055Z,7.38
2022-09-18T01:47:55.085Z,6.47
2022-09-18T01:51:05.248Z,7.00
2022-09-18T01:54:14.722Z,6.65
2022-09-18T01:57:24.540Z,7.05
2022-09-18T02:00:34.054Z,7.20
2022-09-18T02:03:42.141Z,7.93
2022-09-18T02:06:48.819Z,7.53
2022-09-18T02:09:54.197Z,7.63
2022-09-18T02:13:00.498Z,7.57
2022-09-18T02:16:10.723Z,8.40
2022-09-18T02:19:20.261Z,8.00
2022-09-18T02:22:25.665Z,9.02
2022-09-18T02:25:34.580Z,9.60
2022-09-18T02:28:39.951Z,9.05
2022-09-18T02:31:49.593Z,9.43
2022-09-18T02:34:55.652Z,10.32
2022-09-18T02:38:02.555Z,9.23
2022-09-18T02:41:11.136Z,11.25
2022-09-18T02:44:17.999Z,10.30
2022-09-18T02:47:31.624Z,10.07
2022-09-18T02:50:39.809Z,10.63
2022-09-18T02:53:47.033Z,10.70
2022-09-18T02:56:53.902Z,11.02
2022-09-18T03:00:00.719Z,13.13
2022-09-18T03:03:08.934Z,12.60
2022-09-18T03:06:20.638Z,12.80
2022-09-18T03:09:25.830Z,11.45
2022-09-18T03:12:31.089Z,12.43
2022-09-18T03:15:36.184Z,11.43
2022-09-18T03:18:43.933Z,11.63
2022-09-18T03:21:51.309Z,10.82
2022-09-18T03:24:57.131Z,11.65
2022-09-18T03:28:02.251Z,10.93
2022-09-18T03:31:15.584Z,10.15
2022-09-18T03:34:24.834Z,10.70
2022-09-18T03:37:30.345Z,10.65
2022-09-18T03:40:36.958Z,10.02
2022-09-18T03:43:43.917Z,9.45
2022-09-18T03:46:50.618Z,8.73
2022-09-18T03:49:59.809Z,9.35
2022-09-18T03:53:05.079Z,9.07
2022-09-18T03:56:19.617Z,9.43
2022-09-18T03:59:30.415Z,9.43
2022-09-18T04:02:45.228Z,9.43
2022-09-18T04:06:12.541Z,9.18
2022-09-18T04:09:35.877Z,9.20
2022-09-18T04:12:41.244Z,9.18
2022-09-18T04:15:54.857Z,9.00
2022-09-18T04:19:00.184Z,7.85
2022-09-18T04:22:07.943Z,8.35
2022-09-18T04:25:17.888Z,9.80
2022-09-18T04:28:24.896Z,8.75
2022-09-18T04:31:30.758Z,9.57
2022-09-18T04:34:39.754Z,10.02
2022-09-18T04:37:50.107Z,10.20
2022-09-18T04:40:56.768Z,10.05
2022-09-18T04:44:02.190Z,9.95
2022-09-18T04:47:07.952Z,9.35
2022-09-18T04:50:13.244Z,9.25
2022-09-18T04:53:40.859Z,8.52
2022-09-18T04:56:47.772Z,8.60
2022-09-18T04:59:53.384Z,8.82
2022-09-18T05:02:58.617Z,8.98
2022-09-18T05:06:06.285Z,13.32
2022-09-18T05:09:13.874Z,9.20
2022-09-18T05:12:18.857Z,9.02
2022-09-18T05:15:24.113Z,8.32
2022-09-18T05:18:30.586Z,8.30
2022-09-18T05:21:37.558Z,9.15
2022-09-18T05:24:48.391Z,8.15
2022-09-18T05:27:56.864Z,10.18
2022-09-18T05:31:05.125Z,8.75
2022-09-18T05:34:16.456Z,9.68
2022-09-18T05:37:22.207Z,9.80
2022-09-18T05:40:35.238Z,9.48
2022-09-18T05:43:40.753Z,9.10
2022-09-18T05:46:49.984Z,10.07
2022-09-18T05:49:55.789Z,10.38
2022-09-18T05:53:03.352Z,11.45
2022-09-18T05:56:19.568Z,10.75
2022-09-18T05:59:25.057Z,11.43
2022-09-18T06:02:32.556Z,12.65
2022-09-18T06:05:54.233Z,12.88
2022-09-18T06:09:00.542Z,11.70
2022-09-18T06:12:08.805Z,11.70
2022-09-18T06:15:14.912Z,10.10
2022-09-18T06:18:21.305Z,9.32
2022-09-18T06:21:26.584Z,10.25
2022-09-18T06:24:31.803Z,9.27
2022-09-18T06:27:53.848Z,9.52
2022-09-18T06:30:59.065Z,10.15
2022-09-18T06:34:04.325Z,10.43
2022-09-18T06:37:12.082Z,12.15
2022-09-18T06:40:19.919Z,11.68
2022-09-18T06:43:51.483Z,11.65
2022-09-18T06:47:11.164Z,11.43
2022-09-18T06:50:20.345Z,11.60
2022-09-18T06:53:26.220Z,12.90
2022-09-18T06:56:37.111Z,12.20
2022-09-18T06:59:47.440Z,15.10
2022-09-18T07:02:58.852Z,12.23
2022-09-18T07:06:30.079Z,10.20
2022-09-18T07:09:35.228Z,10.10
2022-09-18T07:12:52.866Z,9.95
2022-09-18T07:16:01.012Z,10.40
2022-09-18T07:19:06.808Z,10.75
2022-09-18T07:22:13.377Z,11.57
2022-09-18T07:25:21.979Z,9.85
2022-09-18T07:28:27.079Z,9.00
2022-09-18T07:31:41.928Z,9.23
2022-09-18T07:34:47.880Z,8.60
2022-09-18T07:38:00.264Z,8.60
2022-09-18T07:41:19.522Z,8.35
2022-09-18T07:44:24.471Z,7.90
2022-09-18T07:47:33.489Z,7.55
2022-09-18T07:50:40.106Z,7.95
2022-09-18T07:53:47.596Z,7.38
2022-09-18T07:56:58.232Z,7.22
2022-09-18T08:00:07.621Z,6.63
2022-09-18T08:03:23.068Z,7.72
2022-09-18T08:07:04.295Z,7.97
2022-09-18T08:10:45.587Z,7.60
2022-09-18T08:14:11.263Z,7.65
2022-09-18T08:17:23.064Z,7.80
2022-09-18T08:20:49.075Z,7.40
2022-09-18T08:24:03.529Z,7.13
2022-09-18T08:27:09.246Z,7.38
2022-09-18T08:30:15.785Z,7.90
2022-09-18T08:33:22.883Z,7.30
2022-09-18T08:36:30.522Z,6.88
2022-09-18T08:39:39.321Z,6.22
2022-09-18T08:42:51.200Z,6.15
2022-09-18T08:45:58.869Z,5.57
2022-09-18T08:49:10.170Z,6.07
2022-09-18T08:52:19.468Z,5.75
2022-09-18T08:55:33.668Z,6.32
2022-09-18T08:58:59.892Z,5.70
2022-09-18T09:02:15.708Z,5.68
2022-09-18T09:05:23.843Z,6.15
2022-09-18T09:08:39.013Z,5.20
2022-09-18T09:11:47.832Z,6.10
2022-09-18T09:15:03.746Z,6.38
2022-09-18T09:18:18.324Z,7.50
2022-09-18T09:21:26.303Z,6.93
2022-09-18T09:24:36.519Z,5.03
2022-09-18T09:27:43.516Z,6.22
2022-09-18T09:31:10.059Z,6.70
2022-09-18T09:34:35.541Z,7.63
2022-09-18T09:37:54.170Z,7.25
2022-09-18T09:41:04.882Z,8.55
2022-09-18T09:44:21.203Z,7.90
2022-09-18T09:47:30.637Z,8.10
2022-09-18T09:50:43.444Z,7.47
2022-09-18T09:53:48.676Z,8.43
2022-09-18T09:57:02.883Z,17.33
2022-09-18T10:00:12.999Z,15.63
2022-09-18T10:03:32.632Z,8.35
2022-09-18T10:06:43.626Z,8.32
2022-09-18T10:09:51.573Z,7.60
2022-09-18T10:13:02.992Z,7.65
2022-09-18T10:16:13.388Z,8.35
2022-09-18T10:19:20.652Z,8.88
2022-09-18T10:22:26.999Z,8.50
2022-09-18T10:25:36.832Z,7.38
2022-09-18T10:28:44.945Z,6.88
2022-09-18T10:34:57.423Z,7.70
2022-09-18T10:38:03.071Z,6.95
2022-09-18T10:41:22.204Z,6.95
2022-09-18T10:44:31.152Z,7.20
2022-09-18T10:47:41.254Z,7.97
2022-09-18T10:50:55.265Z,8.43
2022-09-18T10:54:06.874Z,8.65
2022-09-18T10:57:32.094Z,7.60
2022-09-18T11:00:45.039Z,7.80
2022-09-18T11:03:51.660Z,8.73
2022-09-18T11:07:07.728Z,8.85
2022-09-18T11:10:19.242Z,7.70
2022-09-18T11:13:26.305Z,8.45
2022-09-18T11:16:36.399Z,8.38
2022-09-18T11:19:42.023Z,8.55
2022-09-18T11:23:17.777Z,8.77
2022-09-18T11:26:29.746Z,8.05
2022-09-18T11:29:40.013Z,7.47
2022-09-18T11:32:53.598Z,7.32
2022-09-18T11:36:00.970Z,7.28
2022-09-18T11:39:15.702Z,8.13
2022-09-18T11:42:22.833Z,8.88
2022-09-18T11:45:45.970Z,9.38
2022-09-18T11:48:59.372Z,8.70
2022-09-18T11:52:13.575Z,8.38
2022-09-18T11:55:28.793Z,8.23
2022-09-18T11:58:37.865Z,9.95
2022-09-18T12:01:44.803Z,9.00
2022-09-18T12:04:55.237Z,9.30
2022-09-18T12:08:03.595Z,9.00
2022-09-18T12:11:15.807Z,9.40
2022-09-18T12:14:24.253Z,9.43
2022-09-18T12:17:48.778Z,8.65
2022-09-18T12:20:59.255Z,9.10
2022-09-18T12:24:05.405Z,9.93
2022-09-18T12:27:20.628Z,9.95
2022-09-18T12:30:30.950Z,9.80
2022-09-18T12:33:39.829Z,9.98
2022-09-18T12:36:55.814Z,10.50
2022-09-18T12:40:09.579Z,9.50
2022-09-18T12:43:26.526Z,10.60
2022-09-18T12:46:49.406Z,10.50
2022-09-18T12:50:04.679Z,10.65
2022-09-18T12:53:20.111Z,10.52
2022-09-18T12:56:38.542Z,12.80
2022-09-18T13:02:55.097Z,12.65
2022-09-18T13:06:01.769Z,13.18
2022-09-18T13:09:13.597Z,13.00
2022-09-18T13:12:21.041Z,13.75
2022-09-18T13:15:28.639Z,12.98
2022-09-18T13:18:37.747Z,13.50
2022-09-18T13:24:52.727Z,13.00
2022-09-18T13:27:58.420Z,13.90
2022-09-18T13:31:18.636Z,14.48
2022-09-18T13:34:25.106Z,14.88
2022-09-18T13:37:31.260Z,16.60
2022-09-18T13:40:40.439Z,14.70
2022-09-18T13:43:46.847Z,15.98
2022-09-18T13:46:52.605Z,15.07
2022-09-18T13:49:59.483Z,14.00
2022-09-18T13:53:05.315Z,14.13
2022-09-18T13:56:14.353Z,13.15
2022-09-18T13:59:22.866Z,13.00
2022-09-18T14:05:34.488Z,11.25
2022-09-18T14:08:40.319Z,11.38
2022-09-18T14:11:47.884Z,11.18
2022-09-18T14:15:00.581Z,11.20
2022-09-18T14:18:10.100Z,10.80
2022-09-18T14:21:17.264Z,9.75
2022-09-18T14:24:25.780Z,9.33
2022-09-18T14:27:38.208Z,9.18
2022-09-18T14:30:43.493Z,8.57
2022-09-18T14:33:48.796Z,9.50
2022-09-18T14:36:55.193Z,9.05
2022-09-18T14:40:01.380Z,9.05
2022-09-18T14:43:19.469Z,8.57
2022-09-18T14:46:26.785Z,8.05
2022-09-18T14:49:35.123Z,7.97
2022-09-18T14:52:44.749Z,7.32
2022-09-18T14:55:52.392Z,7.47
2022-09-18T14:59:02.083Z,7.50
2022-09-18T15:02:14.466Z,6.97
2022-09-18T15:05:21.149Z,7.78
2022-09-18T15:08:27.663Z,7.63
2022-09-18T15:11:47.039Z,6.97
2022-09-18T15:15:00.714Z,7.15
2022-09-18T15:18:06.448Z,7.13
2022-09-18T15:21:21.334Z,6.65
2022-09-18T15:24:26.665Z,5.93
2022-09-18T15:27:32.504Z,5.78
2022-09-18T15:30:40.812Z,5.10
2022-09-18T15:36:57.199Z,5.10
2022-09-18T15:40:04.824Z,8.13
2022-09-18T15:43:20.742Z,5.03
2022-09-18T15:46:32.074Z,4.85
2022-09-18T15:49:37.632Z,4.78
2022-09-18T15:52:43.590Z,4.15
2022-09-18T15:55:57.360Z,4.80
2022-09-18T15:59:04.311Z,4.00
2022-09-18T16:02:21.502Z,4.78
2022-09-18T16:05:26.917Z,4.45
2022-09-18T16:08:32.973Z,4.65
2022-09-18T16:11:42.388Z,4.90
2022-09-18T16:14:50.375Z,3.95
2022-09-18T16:17:59.632Z,4.15
2022-09-18T16:21:06.425Z,3.90
2022-09-18T16:24:21.168Z,3.70
2022-09-18T16:27:27.027Z,4.18
2022-09-18T16:30:33.803Z,4.38
2022-09-18T16:33:49.562Z,4.15
2022-09-18T16:36:55.431Z,3.75
2022-09-18T16:40:01.656Z,4.03
2022-09-18T16:43:07.953Z,3.80
2022-09-18T16:46:14.362Z,3.80
2022-09-18T16:49:23.458Z,3.70
2022-09-18T16:52:28.769Z,3.90
2022-09-18T16:55:34.004Z,4.13
2022-09-18T16:58:39.390Z,4.32
2022-09-18T17:02:02.803Z,4.57
2022-09-18T17:05:11.820Z,4.43
2022-09-18T17:08:16.935Z,5.68
2022-09-18T17:11:22.109Z,4.28
2022-09-18T17:14:27.941Z,4.55
2022-09-18T17:17:33.333Z,4.55
2022-09-18T17:20:41.023Z,4.80
2022-09-18T17:23:46.102Z,5.13
2022-09-18T17:26:51.160Z,6.18
2022-09-18T17:29:56.248Z,6.07
2022-09-18T17:33:01.299Z,5.60
2022-09-18T17:36:09.749Z,6.43
2022-09-18T17:42:19.873Z,5.82
2022-09-18T17:45:24.795Z,5.80
2022-09-18T17:48:31.453Z,6.60
2022-09-18T17:51:39.296Z,5.95
2022-09-18T17:54:44.388Z,7.35
2022-09-18T17:57:53.136Z,6.55
2022-09-18T18:00:58.676Z,7.20
2022-09-18T18:04:04.092Z,7.22
2022-09-18T18:07:11.970Z,6.85
2022-09-18T18:10:17.119Z,7.10
2022-09-18T18:13:22.598Z,6.10
2022-09-18T18:16:29.007Z,7.50
2022-09-18T18:19:34.661Z,7.13
2022-09-18T18:22:42.316Z,8.93
2022-09-18T18:25:47.851Z,8.05
2022-09-18T18:28:53.205Z,8.23
2022-09-18T18:31:58.800Z,8.88
2022-09-18T18:35:04.044Z,8.95
2022-09-18T18:38:12.047Z,9.45
2022-09-18T18:41:17.632Z,8.85
2022-09-18T18:44:23.759Z,9.15
2022-09-18T18:47:29.781Z,10.50
2022-09-18T18:50:35.179Z,9.52
2022-09-18T18:53:43.181Z,9.38
2022-09-18T18:56:48.601Z,9.52
2022-09-18T18:59:53.586Z,10.48
2022-09-18T19:02:58.918Z,11.00
2022-09-18T19:06:04.564Z,13.13
2022-09-18T19:09:17.003Z,12.35
2022-09-18T19:12:27.078Z,11.70
2022-09-18T19:15:34.649Z,12.15
2022-09-18T19:18:43.239Z,12.13
2022-09-18T19:21:48.678Z,12.70
2022-09-18T19:24:56.655Z,12.48
2022-09-18T19:28:02.078Z,12.43
2022-09-18T19:31:07.650Z,12.10
2022-09-18T19:34:13.217Z,11.68
2022-09-18T19:37:18.488Z,11.15
2022-09-18T19:40:32.380Z,11.15
2022-09-18T19:43:39.607Z,10.73
2022-09-18T19:46:46.485Z,10.43
2022-09-18T19:49:52.050Z,10.05
2022-09-18T19:52:57.609Z,10.52
2022-09-18T19:56:12.371Z,9.60
2022-09-18T19:59:27.931Z,10.07
2022-09-18T20:02:33.391Z,10.02
2022-09-18T20:05:39.122Z,9.23
2022-09-18T20:08:44.262Z,10.07
2022-09-18T20:11:52.107Z,9.40
2022-09-18T20:14:57.359Z,9.40
2022-09-18T20:18:02.423Z,9.10
2022-09-18T20:21:09.730Z,8.20
2022-09-18T20:24:15.396Z,9.02
2022-09-18T20:27:23.602Z,8.63
2022-09-18T20:30:29.118Z,8.90
2022-09-18T20:33:34.799Z,8.05
2022-09-18T20:36:40.075Z,9.05
2022-09-18T20:39:45.507Z,8.40
2022-09-18T20:42:53.753Z,7.55
2022-09-18T20:46:00.289Z,8.40
2022-09-18T20:49:05.355Z,8.98
2022-09-18T20:52:14.341Z,9.15
2022-09-18T20:55:20.096Z,9.45
2022-09-18T20:58:28.397Z,9.93
2022-09-18T21:01:35.313Z,9.75
2022-09-18T21:04:44.338Z,9.73
2022-09-18T21:07:57.391Z,9.68
2022-09-18T21:11:04.830Z,10.18
2022-09-18T21:14:13.607Z,13.77
2022-09-18T21:17:18.741Z,10.38
2022-09-18T21:20:24.110Z,11.63
2022-09-18T21:23:41.584Z,11.02
2022-09-18T21:26:48.071Z,10.48
2022-09-18T21:29:58.077Z,9.68
2022-09-18T21:33:03.295Z,8.13
2022-09-18T21:36:08.696Z,8.23
2022-09-18T21:39:14.515Z,7.10
2022-09-18T21:42:19.884Z,6.53
2022-09-18T21:45:27.487Z,6.60
2022-09-18T21:48:33.309Z,5.88
2022-09-18T21:51:40.418Z,6.20
2022-09-18T21:54:45.585Z,6.30
2022-09-18T21:57:50.812Z,6.85
2022-09-18T22:00:58.788Z,7.25
2022-09-18T22:04:04.016Z,7.68
2022-09-18T22:07:09.600Z,7.63
2022-09-18T22:10:14.919Z,7.05
2022-09-18T22:13:20.106Z,6.90
2022-09-18T22:16:29.244Z,7.00
2022-09-18T22:19:39.276Z,6.60
2022-09-18T22:22:46.272Z,6.90
2022-09-18T22:25:51.516Z,7.20
2022-09-18T22:28:58.333Z,7.20
2022-09-18T22:32:06.174Z,6.20
2022-09-18T22:35:12.448Z,6.75
2022-09-18T22:38:17.692Z,6.50
2022-09-18T22:41:22.914Z,6.15
2022-09-18T22:44:28.062Z,6.90
2022-09-18T22:47:35.967Z,6.82
2022-09-18T22:50:41.093Z,7.18
2022-09-18T22:53:50.519Z,5.95
2022-09-18T22:56:57.134Z,6.40
2022-09-18T23:00:02.209Z,6.05
2022-09-18T23:03:12.387Z,6.00
2022-09-18T23:06:22.550Z,5.28
2022-09-18T23:09:30.437Z,6.03
2022-09-18T23:12:35.785Z,5.57
2022-09-18T23:15:41.137Z,5.78
2022-09-18T23:18:50.591Z,6.15
2022-09-18T23:21:55.912Z,6.35
2022-09-18T23:25:01.058Z,6.20
2022-09-18T23:28:06.521Z,5.50
2022-09-18T23:31:13.295Z,6.70
2022-09-18T23:34:22.120Z,7.00
2022-09-18T23:40:31.900Z,6.63
2022-09-18T23:43:37.207Z,7.43
2022-09-18T23:46:42.205Z,7.13
2022-09-18T23:49:50.095Z,7.55
2022-09-18T23:52:55.386Z,7.32
2022-09-18T23:56:04.280Z,7.15
2022-09-18T23:59:10.177Z,7.35
